createdAt,value
2023-09-17T00:01:19.539Z,4.23
2023-09-17T00:03:46.274Z,3.92
2023-09-17T00:06:13.045Z,4.32
2023-09-17T00:08:39.531Z,4.07
2023-09-17T00:11:08.149Z,4.03
2023-09-17T00:13:34.760Z,4.30
2023-09-17T00:16:01.665Z,3.95
2023-09-17T00:18:28.642Z,4.00
2023-09-17T00:20:55.105Z,4.13
2023-09-17T00:23:21.739Z,4.00
2023-09-17T00:25:48.254Z,4.07
2023-09-17T00:28:15.023Z,3.80
2023-09-17T00:30:41.724Z,3.90
2023-09-17T00:33:08.249Z,3.97
2023-09-17T00:35:34.795Z,3.60
2023-09-17T00:38:01.284Z,3.80
2023-09-17T00:40:31.423Z,3.70
2023-09-17T00:42:57.880Z,4.00
2023-09-17T00:45:24.553Z,3.70
2023-09-17T00:47:51.474Z,3.80
2023-09-17T00:50:18.083Z,3.60
2023-09-17T00:52:45.988Z,4.22
2023-09-17T00:55:12.491Z,3.70
2023-09-17T00:57:41.830Z,4.10
2023-09-17T01:00:10.979Z,3.70
2023-09-17T01:02:39.151Z,3.50
2023-09-17T01:05:06.406Z,3.55
2023-09-17T01:10:02.272Z,3.65
2023-09-17T01:12:28.835Z,3.70
2023-09-17T01:14:56.080Z,3.67
2023-09-17T01:17:28.684Z,3.95
2023-09-17T01:19:56.483Z,3.80
2023-09-17T01:22:30.597Z,3.60
2023-09-17T01:25:07.830Z,3.58
2023-09-17T01:30:01.192Z,3.38
2023-09-17T01:32:27.657Z,3.40
2023-09-17T01:34:54.345Z,3.83
2023-09-17T01:37:35.550Z,3.58
2023-09-17T01:40:11.888Z,3.70
2023-09-17T01:42:41.404Z,3.42
2023-09-17T01:45:10.329Z,3.53
2023-09-17T01:47:38.312Z,3.72
2023-09-17T01:50:06.174Z,4.10
2023-09-17T01:52:35.857Z,3.45
2023-09-17T01:55:03.712Z,3.95
2023-09-17T01:57:30.641Z,3.40
2023-09-17T01:59:57.240Z,3.30
2023-09-17T02:02:24.303Z,3.72
2023-09-17T02:04:50.759Z,3.75
2023-09-17T02:07:17.505Z,3.70
2023-09-17T02:09:44.105Z,3.50
2023-09-17T02:12:10.625Z,3.75
2023-09-17T02:14:37.053Z,4.20
2023-09-17T02:17:04.439Z,3.80
2023-09-17T02:21:57.283Z,3.80
2023-09-17T02:24:23.705Z,3.40
2023-09-17T02:26:50.149Z,3.83
2023-09-17T02:29:16.659Z,3.77
2023-09-17T02:31:43.199Z,3.87
2023-09-17T02:34:09.786Z,3.78
2023-09-17T02:36:37.627Z,4.50
2023-09-17T02:39:04.802Z,3.83
2023-09-17T02:41:31.253Z,3.67
2023-09-17T02:43:58.385Z,3.97
2023-09-17T02:46:24.921Z,3.78
2023-09-17T02:48:52.165Z,4.17
2023-09-17T02:51:18.634Z,3.88
2023-09-17T02:53:47.963Z,4.15
2023-09-17T02:56:14.645Z,4.13
2023-09-17T02:58:41.253Z,4.20
2023-09-17T03:01:19.332Z,3.88
2023-09-17T03:03:46.537Z,3.80
2023-09-17T03:06:13.355Z,4.10
2023-09-17T03:08:42.672Z,3.92
2023-09-17T03:11:14.924Z,3.97
2023-09-17T03:13:43.367Z,4.20
2023-09-17T03:16:10.341Z,3.65
2023-09-17T03:18:36.801Z,4.32
2023-09-17T03:21:07.366Z,3.80
2023-09-17T03:23:34.480Z,3.80
2023-09-17T03:26:04.645Z,4.25
2023-09-17T03:28:34.493Z,3.97
2023-09-17T03:31:02.150Z,4.10
2023-09-17T03:33:29.296Z,3.75
2023-09-17T03:35:55.956Z,4.10
2023-09-17T03:38:22.382Z,4.10
2023-09-17T03:40:48.878Z,4.10
2023-09-17T03:43:15.794Z,3.97
2023-09-17T03:45:42.557Z,4.13
2023-09-17T03:48:09.202Z,4.10
2023-09-17T03:50:40.520Z,4.10
2023-09-17T03:53:07.765Z,3.88
2023-09-17T03:55:35.396Z,4.25
2023-09-17T03:58:02.771Z,4.13
2023-09-17T04:00:29.243Z,4.38
2023-09-17T04:02:56.224Z,4.07
2023-09-17T04:05:23.288Z,3.80
2023-09-17T04:07:49.874Z,4.20
2023-09-17T04:10:18.440Z,4.07
2023-09-17T04:12:46.365Z,4.55
2023-09-17T04:15:17.882Z,4.00
2023-09-17T04:17:45.678Z,4.13
2023-09-17T04:20:15.693Z,4.20
2023-09-17T04:22:43.308Z,3.83
2023-09-17T04:25:11.138Z,4.03
2023-09-17T04:27:38.720Z,3.95
2023-09-17T04:30:08.527Z,4.15
2023-09-17T04:32:38.800Z,4.10
2023-09-17T04:35:09.363Z,4.13
2023-09-17T04:37:36.865Z,4.18
2023-09-17T04:40:09.642Z,3.72
2023-09-17T04:42:37.218Z,3.83
2023-09-17T04:45:05.354Z,4.20
2023-09-17T04:47:34.490Z,4.10
2023-09-17T04:50:01.403Z,4.18
2023-09-17T04:52:28.058Z,3.90
2023-09-17T04:54:54.882Z,4.47
2023-09-17T04:57:21.367Z,4.30
2023-09-17T04:59:47.970Z,3.97
2023-09-17T05:02:17.771Z,3.93
2023-09-17T05:04:46.086Z,4.07
2023-09-17T05:07:12.895Z,4.40
2023-09-17T05:09:39.363Z,4.25
2023-09-17T05:12:06.822Z,4.63
2023-09-17T05:16:59.714Z,4.60
2023-09-17T05:19:26.274Z,4.40
2023-09-17T05:21:52.861Z,4.45
2023-09-17T05:24:19.387Z,4.60
2023-09-17T05:26:45.852Z,4.20
2023-09-17T05:29:16.871Z,4.63
2023-09-17T05:31:43.828Z,4.30
2023-09-17T05:34:10.613Z,4.32
2023-09-17T05:36:37.059Z,4.40
2023-09-17T05:39:04.505Z,4.80
2023-09-17T05:41:31.255Z,4.90
2023-09-17T05:43:57.740Z,4.50
2023-09-17T05:46:24.288Z,4.50
2023-09-17T05:48:50.818Z,4.40
2023-09-17T05:51:17.317Z,4.17
2023-09-17T05:53:43.769Z,4.47
2023-09-17T05:56:12.350Z,4.75
2023-09-17T05:58:39.003Z,4.05
2023-09-17T06:01:05.866Z,4.50
2023-09-17T06:03:32.797Z,4.38
2023-09-17T06:05:59.489Z,4.75
2023-09-17T06:08:29.325Z,4.05
2023-09-17T06:10:56.631Z,4.00
2023-09-17T06:15:50.880Z,4.05
2023-09-17T06:18:18.806Z,4.30
2023-09-17T06:20:45.516Z,3.75
2023-09-17T06:23:11.996Z,3.67
2023-09-17T06:25:38.846Z,3.30
2023-09-17T06:28:05.724Z,3.58
2023-09-17T06:30:32.274Z,3.35
2023-09-17T06:32:58.753Z,3.45
2023-09-17T06:35:25.598Z,3.50
2023-09-17T06:37:52.144Z,3.00
2023-09-17T06:40:18.797Z,3.05
2023-09-17T06:42:45.248Z,3.58
2023-09-17T06:45:12.621Z,2.60
2023-09-17T06:50:07.488Z,2.90
2023-09-17T06:52:34.108Z,2.65
2023-09-17T06:55:00.589Z,2.80
2023-09-17T06:57:27.153Z,2.70
2023-09-17T06:59:54.391Z,2.83
2023-09-17T07:04:47.388Z,2.90
2023-09-17T07:07:13.855Z,2.50
2023-09-17T07:09:40.322Z,2.70
2023-09-17T07:12:07.405Z,2.80
2023-09-17T07:17:00.635Z,2.40
2023-09-17T07:19:28.582Z,2.55
2023-09-17T07:21:55.222Z,2.72
2023-09-17T07:24:21.839Z,2.67
2023-09-17T07:26:48.344Z,2.90
2023-09-17T07:29:14.858Z,2.70
2023-09-17T07:31:42.528Z,2.55
2023-09-17T07:34:09.008Z,3.00
2023-09-17T07:36:35.610Z,2.47
2023-09-17T07:39:02.164Z,2.70
2023-09-17T07:41:31.559Z,2.60
2023-09-17T07:43:58.793Z,2.50
2023-09-17T07:46:25.473Z,2.53
2023-09-17T07:48:52.042Z,2.85
2023-09-17T07:51:18.800Z,2.95
2023-09-17T07:53:47.384Z,2.60
2023-09-17T07:56:15.257Z,2.83
2023-09-17T07:58:43.883Z,2.40
2023-09-17T08:01:12.452Z,2.75
2023-09-17T08:03:38.898Z,2.90
2023-09-17T08:06:06.588Z,2.90
2023-09-17T08:08:33.632Z,3.08
2023-09-17T08:13:26.629Z,2.70
2023-09-17T08:15:53.208Z,2.75
2023-09-17T08:18:19.726Z,3.05
2023-09-17T08:20:46.400Z,2.55
2023-09-17T08:23:12.858Z,2.65
2023-09-17T08:25:39.259Z,2.60
2023-09-17T08:28:10.066Z,2.47
2023-09-17T08:30:39.803Z,2.70
2023-09-17T08:33:06.878Z,2.45
2023-09-17T08:38:00.124Z,2.42
2023-09-17T08:40:31.335Z,2.83
2023-09-17T08:43:00.083Z,2.90
2023-09-17T08:45:28.784Z,2.63
2023-09-17T08:47:55.580Z,2.70
2023-09-17T08:50:22.232Z,2.70
2023-09-17T08:52:55.174Z,2.67
2023-09-17T08:55:22.882Z,2.88
2023-09-17T08:58:02.869Z,2.53
2023-09-17T09:00:32.978Z,2.80
2023-09-17T09:03:05.161Z,2.78
2023-09-17T09:05:32.152Z,2.50
2023-09-17T09:07:58.769Z,2.80
2023-09-17T09:10:25.873Z,2.80
2023-09-17T09:12:52.922Z,2.70
2023-09-17T09:17:45.810Z,2.38
2023-09-17T09:20:12.920Z,2.60
2023-09-17T09:22:39.800Z,2.47
2023-09-17T09:27:35.011Z,2.67
2023-09-17T09:30:05.996Z,2.40
2023-09-17T09:32:33.396Z,2.50
2023-09-17T09:35:02.690Z,3.05
2023-09-17T09:37:29.734Z,2.60
2023-09-17T09:39:56.669Z,2.50
2023-09-17T09:42:27.113Z,2.50
2023-09-17T09:44:54.727Z,2.50
2023-09-17T09:47:23.942Z,2.60
2023-09-17T09:49:51.194Z,2.65
2023-09-17T09:52:19.237Z,2.40
2023-09-17T09:54:47.503Z,2.40
2023-09-17T09:57:19.617Z,2.60
2023-09-17T09:59:48.763Z,2.35
2023-09-17T10:02:17.389Z,2.30
2023-09-17T10:04:47.712Z,2.70
2023-09-17T10:07:15.930Z,2.20
2023-09-17T10:09:42.868Z,2.58
2023-09-17T10:12:09.980Z,2.40
2023-09-17T10:14:38.863Z,2.50
2023-09-17T10:17:11.222Z,2.28
2023-09-17T10:19:38.044Z,2.50
2023-09-17T10:22:08.581Z,2.60
2023-09-17T10:24:37.922Z,2.63
2023-09-17T10:27:08.533Z,2.30
2023-09-17T10:29:39.761Z,2.42
2023-09-17T10:32:07.025Z,2.38
2023-09-17T10:34:36.883Z,2.40
2023-09-17T10:37:04.859Z,2.40
2023-09-17T10:39:34.289Z,2.60
2023-09-17T10:42:07.059Z,2.50
2023-09-17T10:44:37.521Z,2.30
2023-09-17T10:47:07.498Z,2.60
2023-09-17T10:49:37.580Z,2.67
2023-09-17T10:52:06.180Z,2.30
2023-09-17T10:54:32.680Z,2.13
2023-09-17T10:57:05.503Z,2.20
2023-09-17T10:59:32.517Z,2.30
2023-09-17T11:02:00.110Z,2.35
2023-09-17T11:04:27.683Z,2.38
2023-09-17T11:06:55.217Z,2.15
2023-09-17T11:09:22.028Z,2.17
2023-09-17T11:11:48.678Z,2.17
2023-09-17T11:16:43.525Z,2.10
2023-09-17T11:19:17.490Z,2.53
2023-09-17T11:21:48.939Z,2.30
2023-09-17T11:24:18.971Z,2.20
2023-09-17T11:26:46.756Z,2.30
2023-09-17T11:29:13.778Z,2.35
2023-09-17T11:31:52.510Z,2.38
2023-09-17T11:34:19.105Z,2.03
2023-09-17T11:36:49.043Z,2.45
2023-09-17T11:39:17.215Z,2.40
2023-09-17T11:41:47.619Z,2.22
2023-09-17T11:44:14.761Z,2.45
2023-09-17T11:46:43.442Z,2.20
2023-09-17T11:49:13.043Z,2.30
2023-09-17T11:51:44.325Z,1.80
2023-09-17T11:54:17.042Z,2.30
2023-09-17T11:56:49.015Z,2.17
2023-09-17T11:59:18.391Z,2.08
2023-09-17T12:01:56.012Z,2.45
2023-09-17T12:04:27.757Z,2.20
2023-09-17T12:06:55.329Z,2.15
2023-09-17T12:09:39.573Z,2.30
2023-09-17T12:12:07.770Z,2.17
2023-09-17T12:14:34.691Z,2.45
2023-09-17T12:17:02.559Z,2.17
2023-09-17T12:19:29.930Z,2.50
2023-09-17T12:21:59.556Z,2.30
2023-09-17T12:24:45.690Z,2.28
2023-09-17T12:27:25.676Z,2.38
2023-09-17T12:29:55.486Z,2.17
2023-09-17T12:32:26.668Z,2.20
2023-09-17T12:34:54.591Z,2.40
2023-09-17T12:37:22.555Z,2.20
2023-09-17T12:39:50.955Z,2.80
2023-09-17T12:42:22.144Z,2.60
2023-09-17T12:44:49.522Z,2.50
2023-09-17T12:47:16.759Z,2.30
2023-09-17T12:49:43.986Z,2.42
2023-09-17T12:52:12.275Z,2.30
2023-09-17T12:54:39.058Z,2.25
2023-09-17T13:02:01.598Z,2.60
2023-09-17T13:04:42.282Z,2.50
2023-09-17T13:07:29.001Z,2.63
2023-09-17T13:09:59.750Z,2.60
2023-09-17T13:12:29.349Z,2.42
2023-09-17T13:14:56.476Z,2.50
2023-09-17T13:17:24.663Z,2.60
2023-09-17T13:19:51.824Z,2.50
2023-09-17T13:22:20.168Z,2.60
2023-09-17T13:24:47.227Z,2.50
2023-09-17T13:27:18.434Z,2.42
2023-09-17T13:29:52.565Z,2.47
2023-09-17T13:32:20.407Z,2.22
2023-09-17T13:34:47.750Z,2.33
2023-09-17T13:37:15.781Z,2.80
2023-09-17T13:39:47.083Z,2.47
2023-09-17T13:42:13.640Z,2.50
2023-09-17T13:44:40.518Z,2.42
2023-09-17T13:49:35.388Z,2.47
2023-09-17T13:52:01.963Z,2.55
2023-09-17T13:54:28.480Z,2.25
2023-09-17T13:56:54.989Z,2.45
2023-09-17T13:59:21.503Z,2.38
2023-09-17T14:01:48.191Z,2.55
2023-09-17T14:04:15.005Z,2.40
2023-09-17T14:11:36.998Z,2.30
2023-09-17T14:14:04.455Z,2.50
2023-09-17T14:16:31.125Z,2.10
2023-09-17T14:18:57.567Z,2.10
2023-09-17T14:21:24.130Z,2.45
2023-09-17T14:23:50.584Z,2.17
2023-09-17T14:26:17.071Z,2.45
2023-09-17T14:28:43.598Z,2.15
2023-09-17T14:31:10.120Z,2.40
2023-09-17T14:33:36.665Z,2.35
2023-09-17T14:36:03.673Z,2.35
2023-09-17T14:38:30.186Z,2.35
2023-09-17T14:40:56.630Z,2.67
2023-09-17T14:43:23.773Z,2.70
2023-09-17T14:45:50.395Z,2.40
2023-09-17T14:48:17.014Z,2.40
2023-09-17T14:50:43.472Z,2.70
2023-09-17T14:53:10.098Z,2.47
2023-09-17T14:55:36.690Z,2.60
2023-09-17T14:58:03.578Z,2.60
2023-09-17T15:02:56.596Z,2.90
2023-09-17T15:05:23.221Z,2.80
2023-09-17T15:07:50.302Z,2.65
2023-09-17T15:10:16.938Z,2.47
2023-09-17T15:12:43.396Z,2.78
2023-09-17T15:15:11.603Z,2.40
2023-09-17T15:17:38.416Z,2.97
2023-09-17T15:22:32.396Z,2.63
2023-09-17T15:24:58.852Z,3.00
2023-09-17T15:27:25.913Z,2.75
2023-09-17T15:32:23.309Z,2.72
2023-09-17T15:34:50.097Z,2.95
2023-09-17T15:37:16.715Z,2.70
2023-09-17T15:39:44.591Z,2.85
2023-09-17T15:42:11.012Z,3.00
2023-09-17T15:44:38.482Z,2.67
2023-09-17T15:47:05.364Z,2.85
2023-09-17T15:56:51.997Z,2.83
2023-09-17T15:59:18.465Z,2.80
2023-09-17T16:01:45.761Z,3.00
2023-09-17T16:04:12.602Z,4.40
2023-09-17T16:06:39.755Z,4.25
2023-09-17T16:09:06.226Z,3.20
2023-09-17T16:11:33.907Z,3.35
2023-09-17T16:14:00.460Z,3.20
2023-09-17T16:16:27.111Z,3.42
2023-09-17T16:18:53.769Z,3.00
2023-09-17T16:21:20.233Z,2.90
2023-09-17T16:23:46.784Z,3.58
2023-09-17T16:26:13.592Z,3.38
2023-09-17T16:28:40.399Z,3.60
2023-09-17T16:31:06.912Z,3.30
2023-09-17T16:33:33.665Z,2.88
2023-09-17T16:36:00.810Z,2.95
2023-09-17T16:38:27.441Z,2.75
2023-09-17T16:40:54.160Z,3.15
2023-09-17T16:43:22.161Z,2.60
2023-09-17T16:45:48.666Z,2.80
2023-09-17T16:48:15.098Z,2.95
2023-09-17T16:50:41.609Z,3.00
2023-09-17T16:53:08.216Z,3.13
2023-09-17T16:55:37.407Z,2.90
2023-09-17T16:58:04.228Z,3.00
2023-09-17T17:00:30.695Z,3.03
2023-09-17T17:02:57.296Z,2.92
2023-09-17T17:05:23.829Z,2.90
2023-09-17T17:07:50.516Z,2.83
2023-09-17T17:10:17.581Z,3.03
2023-09-17T17:15:10.811Z,3.17
2023-09-17T17:17:38.075Z,3.03
2023-09-17T17:20:05.143Z,3.20
2023-09-17T17:25:09.148Z,3.15
2023-09-17T17:27:35.732Z,2.97
2023-09-17T17:30:03.682Z,3.20
2023-09-17T17:32:31.341Z,3.30
2023-09-17T17:34:57.858Z,3.20
2023-09-17T17:37:24.285Z,2.92
2023-09-17T17:39:50.695Z,3.10
2023-09-17T17:42:17.298Z,3.50
2023-09-17T17:44:43.810Z,2.88
2023-09-17T17:47:10.609Z,2.97
2023-09-17T17:49:37.108Z,3.13
2023-09-17T17:52:04.422Z,3.40
2023-09-17T17:54:31.513Z,3.40
2023-09-17T17:59:25.292Z,3.30
2023-09-17T18:01:52.089Z,3.08
2023-09-17T18:04:18.704Z,3.33
2023-09-17T18:06:45.119Z,3.40
2023-09-17T18:09:11.716Z,3.13
2023-09-17T18:11:38.217Z,3.20
2023-09-17T18:14:04.847Z,3.13
2023-09-17T18:16:31.390Z,3.30
2023-09-17T18:18:57.981Z,3.58
2023-09-17T18:21:24.523Z,3.75
2023-09-17T18:23:51.377Z,3.47
2023-09-17T18:26:17.988Z,3.85
2023-09-17T18:28:44.619Z,3.72
2023-09-17T18:31:11.532Z,3.42
2023-09-17T18:33:39.148Z,3.85
2023-09-17T18:36:06.548Z,3.70
2023-09-17T18:38:33.217Z,3.63
2023-09-17T18:40:59.670Z,3.67
2023-09-17T18:43:26.158Z,3.67
2023-09-17T18:45:52.703Z,3.97
2023-09-17T18:48:19.284Z,3.70
2023-09-17T18:50:45.922Z,3.90
2023-09-17T18:53:12.415Z,4.00
2023-09-17T18:55:38.935Z,4.70
2023-09-17T18:58:05.401Z,4.18
2023-09-17T19:00:31.916Z,4.32
2023-09-17T19:02:58.458Z,3.65
2023-09-17T19:05:26.267Z,3.30
2023-09-17T19:07:52.798Z,3.22
2023-09-17T19:10:19.501Z,3.65
2023-09-17T19:12:46.152Z,3.72
2023-09-17T19:15:12.791Z,3.55
2023-09-17T19:17:39.319Z,3.65
2023-09-17T19:20:07.084Z,3.35
2023-09-17T19:22:34.539Z,3.70
2023-09-17T19:25:01.155Z,3.60
2023-09-17T19:27:29.041Z,3.47
2023-09-17T19:29:55.541Z,3.33
2023-09-17T19:32:22.104Z,3.40
2023-09-17T19:34:48.603Z,3.40
2023-09-17T19:37:16.189Z,3.33
2023-09-17T19:39:42.786Z,3.20
2023-09-17T19:42:09.584Z,2.97
2023-09-17T19:44:36.274Z,3.40
2023-09-17T19:47:02.780Z,3.00
2023-09-17T19:49:29.270Z,3.50
2023-09-17T19:51:55.723Z,3.50
2023-09-17T19:54:22.176Z,3.20
2023-09-17T19:56:48.770Z,3.50
2023-09-17T19:59:15.787Z,3.25
2023-09-17T20:01:42.630Z,3.42
2023-09-17T20:04:09.327Z,3.67
2023-09-17T20:06:47.772Z,3.60
2023-09-17T20:09:24.058Z,3.50
2023-09-17T20:11:50.607Z,3.67
2023-09-17T20:14:17.175Z,3.97
2023-09-17T20:16:43.684Z,3.10
2023-09-17T20:19:11.063Z,3.70
2023-09-17T20:24:05.891Z,3.97
2023-09-17T20:26:32.424Z,3.60
2023-09-17T20:28:59.881Z,3.47
2023-09-17T20:31:26.429Z,3.75
2023-09-17T20:33:52.956Z,3.72
2023-09-17T20:36:19.360Z,3.78
2023-09-17T20:38:52.639Z,3.20
2023-09-17T20:41:19.518Z,3.67
2023-09-17T20:43:46.319Z,3.70
2023-09-17T20:46:13.147Z,3.90
2023-09-17T20:48:39.663Z,3.83
2023-09-17T20:51:06.474Z,3.63
2023-09-17T20:53:33.418Z,4.00
2023-09-17T20:56:00.326Z,3.53
2023-09-17T20:58:27.324Z,3.65
2023-09-17T21:00:53.928Z,3.92
2023-09-17T21:03:20.681Z,4.03
2023-09-17T21:05:50.333Z,3.63
2023-09-17T21:08:17.098Z,3.55
2023-09-17T21:10:43.933Z,4.13
2023-09-17T21:13:12.080Z,3.83
2023-09-17T21:15:39.685Z,3.97
2023-09-17T21:18:07.462Z,3.60
2023-09-17T21:20:34.109Z,3.45
2023-09-17T21:23:01.409Z,3.40
2023-09-17T21:27:55.311Z,3.47
2023-09-17T21:30:21.854Z,3.85
2023-09-17T21:32:48.648Z,3.67
2023-09-17T21:35:15.720Z,3.75
2023-09-17T21:37:42.287Z,3.60
2023-09-17T21:40:09.632Z,3.55
2023-09-17T21:45:04.219Z,3.38
2023-09-17T21:47:31.079Z,3.67
2023-09-17T21:50:00.745Z,4.03
2023-09-17T21:52:29.879Z,3.25
2023-09-17T21:54:57.520Z,3.88
2023-09-17T21:57:24.588Z,3.97
2023-09-17T21:59:51.293Z,4.20
2023-09-17T22:02:18.155Z,3.75
2023-09-17T22:04:44.736Z,3.60
2023-09-17T22:07:11.584Z,3.60
2023-09-17T22:09:39.863Z,3.42
2023-09-17T22:12:08.014Z,3.50
2023-09-17T22:14:35.575Z,3.50
2023-09-17T22:17:05.992Z,3.30
2023-09-17T22:19:33.985Z,3.70
2023-09-17T22:22:00.472Z,3.40
2023-09-17T22:24:26.887Z,3.30
2023-09-17T22:26:53.398Z,3.20
2023-09-17T22:29:20.064Z,3.50
2023-09-17T22:31:46.611Z,3.30
2023-09-17T22:34:13.035Z,3.45
2023-09-17T22:36:40.505Z,3.40
2023-09-17T22:39:07.211Z,3.22
2023-09-17T22:41:33.775Z,3.30
2023-09-17T22:44:11.932Z,3.05
2023-09-17T22:46:46.708Z,3.22
2023-09-17T22:49:13.594Z,3.10
2023-09-17T22:51:40.101Z,3.38
2023-09-17T22:54:06.504Z,3.17
2023-09-17T22:56:33.522Z,3.47
2023-09-17T22:59:00.117Z,3.30
2023-09-17T23:01:26.778Z,3.30
2023-09-17T23:03:53.250Z,3.00
2023-09-17T23:06:19.983Z,3.00
2023-09-17T23:08:46.418Z,3.15
2023-09-17T23:11:13.282Z,3.55
2023-09-17T23:13:41.199Z,3.25
2023-09-17T23:16:07.969Z,3.20
2023-09-17T23:18:35.142Z,3.35
2023-09-17T23:21:05.319Z,3.28
2023-09-17T23:23:32.585Z,3.28
2023-09-17T23:26:01.240Z,3.17
2023-09-17T23:28:33.591Z,3.25
2023-09-17T23:31:11.892Z,3.35
2023-09-17T23:33:38.365Z,3.08
2023-09-17T23:36:05.247Z,2.92
2023-09-17T23:38:32.809Z,3.03
2023-09-17T23:40:59.345Z,3.13
2023-09-17T23:43:26.035Z,3.20
2023-09-17T23:45:52.929Z,3.30
2023-09-17T23:48:19.474Z,3.22
2023-09-17T23:50:45.947Z,3.43
2023-09-17T23:53:12.830Z,3.28
2023-09-17T23:55:39.580Z,3.38
2023-09-17T23:58:06.045Z,3.50
